Shercock, Ireland
Current Conditions -  °F | °C
As of 10:30 AM on Sunday 23 Nov 2014 (Local Time) from EIDW Reporting Station
Few Clouds Few Clouds  
Wind Chill: 28°   Ceiling: Unl
Heat Index: 36°   Visibility: 6mi
Dew Point: 34°   Wind: 10mph
Humidity: 93%   Direction: 250°WSW
Pressure: 30.12"   Gusts: NA
Location:  54°N, 6.9°W
Report Text: EIDW 230930Z 25009KT 9999 FEW020 02/01 Q1020 NOSIG
Loading
Personal Weather Stations






























Interactive Weather Map New forecast layout! Learn more

10-Day Weather Forecast

Advertisements
Track Severe Weather on mobile